CheckWX is a tool to help pilots better visualize weather data.  It is not intended as a substitute for an official pre-flight weather briefing.

21:29:01 UTC

DIBK METAR
Bouaké Airport
Côte D’Ivoire
Current

1 hour ago

DIBK 232000Z 22004KT CAVOK 29/18 Q1011 NOSIG
Observed
Feb-23 @ 20:00 UTC
Wind
  • 220° at 4 KTS
Visibility
10,000+ meters
Flight Rules
VFR
Cloud Levels
  • Clear skies
Temperature
29°C / 84°F
Dewpoint
18°C / 64°F
Humidity
51%
Altimeter
29.85" Hg
Pressure
1010.92 hPa
Previous

2 hours ago

DIBK 231900Z 20004KT CAVOK 30/19 Q1010 NOSIG
Observed
Feb-23 @ 19:00 UTC
Wind
  • 200° at 4 KTS
Visibility
10,000+ meters
Flight Rules
VFR
Cloud Levels
  • Clear skies
Temperature
30°C / 86°F
Dewpoint
19°C / 66°F
Humidity
52%
Altimeter
29.82" Hg
Pressure
1009.92 hPa
Previous

3 hours ago

DIBK 231800Z VRB02KT 9999 FEW013 33/18 Q1010 NOSIG
Observed
Feb-23 @ 18:00 UTC
Wind
  • Variable at 2 KTS
Visibility
10,000+ meters
Flight Rules
VFR
Cloud Levels
  • Few at 1,300' AGL
Temperature
33°C / 91°F
Dewpoint
18°C / 64°F
Humidity
41%
Altimeter
29.82" Hg
Pressure
1009.92 hPa